This is the latest recevied weather packets stored in our database for station/object DH5DY-6. If no packets are shown the sender has not sent any weather packets the latest 10 day(s).
| Time | Temp. | Humidity | Pressure | Rain* | Wind** | Luminosity | Snow |
|---|---|---|---|---|---|---|---|
| 1788073255 | 17.22° C | 82% | 1010.1 hPa | 0 mm | - | 62 W/m² | - |
| 1788072055 | 17.22° C | 83% | 1009.9 hPa | 0 mm | - | 63 W/m² | - |
| 1788070254 | 16.67° C | 88% | 1009.6 hPa | 0 mm | - | 58 W/m² | - |
| 1788069654 | 16.67° C | 89% | 1009.7 hPa | 0 mm | - | 79 W/m² | - |
| 1788068455 | 16.67° C | 89% | 1009.5 hPa | 0 mm | - | 40 W/m² | - |
| 1788067855 | 16.67° C | 88% | 1009.4 hPa | 0 mm | - | 28 W/m² | - |
| 1788066655 | 16.67° C | 89% | 1009.4 hPa | 0.25 mm | - | 18 W/m² | - |
| 1788066055 | 16.67° C | 89% | 1009.3 hPa | 0.25 mm | - | 18 W/m² | - |
| 1788065454 | 16.67° C | 89% | 1009.1 hPa | 0.25 mm | - | 7 W/m² | - |
| 1788064255 | 17.22° C | 89% | 1008.9 hPa | 0.25 mm | - | 0 W/m² | - |
| 1788063654 | 17.22° C | 88% | 1008.9 hPa | 0.25 mm | - | 0 W/m² | - |
| 1788063054 | 17.22° C | 88% | 1008.7 hPa | 0 mm | - | 0 W/m² | - |
| 1788062457 | 17.22° C | 87% | 1008.7 hPa | 0 mm | - | 0 W/m² | - |
| 1788061254 | 17.78° C | 87% | 1008.8 hPa | 0 mm | - | 0 W/m² | - |
| 1788060654 | 17.78° C | 87% | 1008.7 hPa | 0 mm | - | 0 W/m² | - |
| 1788059453 | 17.78° C | 86% | 1008.7 hPa | 0 mm | - | 0 W/m² | - |
| 1788058854 | 18.33° C | 85% | 1008.6 hPa | 0 mm | - | 0 W/m² | - |
| 1788057654 | 18.33° C | 84% | 1008.6 hPa | 0 mm | - | 0 W/m² | - |
| 1788057054 | 18.33° C | 84% | 1008.6 hPa | 0 mm | - | 0 W/m² | - |
| 1788055854 | 18.33° C | 83% | 1008.7 hPa | 0 mm | - | 0 W/m² | - |
| 1788055253 | 18.33° C | 83% | 1008.7 hPa | 0 mm | - | 0 W/m² | - |
| 1788054053 | 18.33° C | 83% | 1008.7 hPa | 0 mm | - | 0 W/m² | - |
| 1788053453 | 18.33° C | 83% | 1008.7 hPa | 0 mm | - | 0 W/m² | - |
| 1788052253 | 18.33° C | 82% | 1008.7 hPa | 0 mm | - | 0 W/m² | - |
| 1788051653 | 18.33° C | 83% | 1008.7 hPa | 0 mm | - | 0 W/m² | - |
* Rain latest hour (hover to see other rain measurements)
** Current wind speed in m/s (hover to see current wind gust speed)